createdAt,value
2023-04-25T00:00:35.026Z,99.99
2023-04-25T00:01:34.705Z,99.99
2023-04-25T00:02:34.868Z,99.99
2023-04-25T00:03:34.935Z,99.99
2023-04-25T00:04:35.105Z,99.99
2023-04-25T00:05:35.019Z,99.99
2023-04-25T00:06:34.694Z,99.99
2023-04-25T00:07:34.640Z,99.99
2023-04-25T00:08:34.634Z,99.99
2023-04-25T00:09:34.661Z,99.99
2023-04-25T00:10:34.672Z,99.99
2023-04-25T00:11:34.627Z,99.99
2023-04-25T00:12:34.619Z,99.99
2023-04-25T00:13:34.653Z,99.99
2023-04-25T00:14:34.566Z,99.99
2023-04-25T00:15:34.611Z,99.99
2023-04-25T00:16:34.602Z,99.99
2023-04-25T00:17:34.615Z,99.99
2023-04-25T00:18:34.531Z,99.99
2023-04-25T00:19:34.654Z,99.99
2023-04-25T00:20:34.545Z,99.99
2023-04-25T00:21:34.512Z,99.99
2023-04-25T00:22:34.470Z,99.99
2023-04-25T00:23:34.448Z,99.99
2023-04-25T00:24:34.439Z,99.99
2023-04-25T00:25:34.455Z,99.99
2023-04-25T00:26:34.417Z,99.99
2023-04-25T00:27:34.430Z,99.99
2023-04-25T00:28:34.399Z,99.99
2023-04-25T00:29:34.407Z,99.99
2023-04-25T00:30:34.407Z,99.99
2023-04-25T00:31:34.453Z,99.99
2023-04-25T00:32:34.454Z,99.99
2023-04-25T00:33:34.406Z,99.99
2023-04-25T00:34:34.350Z,99.99
2023-04-25T00:35:34.423Z,99.99
2023-04-25T00:36:34.348Z,99.99
2023-04-25T00:37:34.432Z,99.99
2023-04-25T00:38:34.325Z,99.99
2023-04-25T00:39:34.337Z,99.99
2023-04-25T00:40:34.292Z,99.99
2023-04-25T00:41:34.287Z,99.99
2023-04-25T00:42:34.301Z,99.99
2023-04-25T00:43:34.287Z,99.99
2023-04-25T00:44:34.256Z,99.99
2023-04-25T00:45:34.251Z,99.99
2023-04-25T00:46:34.360Z,99.99
2023-04-25T00:47:34.365Z,99.99
2023-04-25T00:48:34.192Z,99.99
2023-04-25T00:49:34.198Z,99.99
2023-04-25T00:50:34.193Z,99.99
2023-04-25T00:51:34.177Z,99.99
2023-04-25T00:52:34.179Z,99.99
2023-04-25T00:53:34.154Z,99.99
2023-04-25T00:54:34.155Z,99.99
2023-04-25T00:55:34.143Z,99.99
2023-04-25T00:56:34.117Z,99.99
2023-04-25T00:57:34.438Z,99.99
2023-04-25T00:58:34.093Z,99.99
2023-04-25T00:59:34.088Z,99.99
2023-04-25T01:00:34.117Z,99.99
2023-04-25T01:01:34.053Z,99.99
2023-04-25T01:02:34.177Z,99.99
2023-04-25T01:03:34.192Z,99.99
2023-04-25T01:04:34.085Z,99.99
2023-04-25T01:05:34.022Z,99.99
2023-04-25T01:06:34.098Z,99.99
2023-04-25T01:07:34.262Z,99.99
2023-04-25T01:08:33.990Z,99.99
2023-04-25T01:09:33.986Z,99.99
2023-04-25T01:10:33.962Z,99.99
2023-04-25T01:11:33.974Z,99.99
2023-04-25T01:12:33.961Z,99.99
2023-04-25T01:13:33.981Z,99.99
2023-04-25T01:14:33.935Z,99.99
2023-04-25T01:15:33.926Z,99.99
2023-04-25T01:16:33.953Z,99.99
2023-04-25T01:17:33.915Z,99.99
2023-04-25T01:18:33.902Z,99.99
2023-04-25T01:19:33.895Z,99.99
2023-04-25T01:20:33.852Z,99.99
2023-04-25T01:21:33.871Z,99.99
2023-04-25T01:22:33.857Z,99.99
2023-04-25T01:23:33.862Z,99.99
2023-04-25T01:24:33.830Z,99.99
2023-04-25T01:25:33.851Z,99.99
2023-04-25T01:26:33.790Z,99.99
2023-04-25T01:27:33.807Z,99.99
2023-04-25T01:28:33.793Z,99.99
2023-04-25T01:29:33.797Z,99.99
2023-04-25T01:30:33.797Z,99.99
2023-04-25T01:31:33.797Z,99.99
2023-04-25T01:32:33.774Z,99.99
2023-04-25T01:33:33.731Z,99.99
2023-04-25T01:34:33.737Z,99.99
2023-04-25T01:35:33.729Z,99.99
2023-04-25T01:36:33.703Z,99.99
2023-04-25T01:37:33.692Z,99.99
2023-04-25T01:38:33.763Z,99.99
2023-04-25T01:39:33.701Z,99.99
2023-04-25T01:40:33.948Z,99.99
2023-04-25T01:41:33.663Z,99.99
2023-04-25T01:42:33.641Z,99.99
2023-04-25T01:43:33.628Z,99.99
2023-04-25T01:44:33.654Z,99.99
2023-04-25T01:45:33.607Z,99.99
2023-04-25T01:46:33.731Z,99.99
2023-04-25T01:47:33.638Z,99.99
2023-04-25T01:48:33.864Z,99.99
2023-04-25T01:49:33.597Z,99.99
2023-04-25T01:50:33.584Z,99.99
2023-04-25T01:51:33.553Z,99.99
2023-04-25T01:52:33.588Z,99.99
2023-04-25T01:53:33.595Z,99.99
2023-04-25T01:54:33.519Z,99.99
2023-04-25T01:55:33.554Z,99.99
2023-04-25T01:56:33.487Z,99.99
2023-04-25T01:57:33.490Z,99.99
2023-04-25T01:58:33.867Z,99.99
2023-04-25T01:59:33.505Z,99.99
2023-04-25T02:00:33.485Z,99.99
2023-04-25T02:01:33.533Z,99.99
2023-04-25T02:02:33.529Z,99.99
2023-04-25T02:03:33.606Z,99.99
2023-04-25T02:04:33.573Z,99.99
2023-04-25T02:05:33.443Z,99.99
2023-04-25T02:06:33.426Z,99.99
2023-04-25T02:07:33.393Z,99.99
2023-04-25T02:08:33.375Z,99.99
2023-04-25T02:09:33.396Z,99.99
2023-04-25T02:10:33.360Z,99.99
2023-04-25T02:11:33.381Z,99.99
2023-04-25T02:12:33.369Z,99.99
2023-04-25T02:13:33.327Z,99.99
2023-04-25T02:14:33.303Z,99.99
2023-04-25T02:15:33.402Z,99.99
2023-04-25T02:16:33.386Z,99.99
2023-04-25T02:17:33.295Z,99.99
2023-04-25T02:18:33.266Z,99.99
2023-04-25T02:19:33.283Z,99.99
2023-04-25T02:20:33.265Z,99.99
2023-04-25T02:21:33.272Z,99.99
2023-04-25T02:22:33.234Z,99.99
2023-04-25T02:23:33.227Z,99.99
2023-04-25T02:24:33.220Z,99.99
2023-04-25T02:25:33.196Z,99.99
2023-04-25T02:26:33.191Z,99.99
2023-04-25T02:27:33.223Z,99.99
2023-04-25T02:28:33.323Z,99.99
2023-04-25T02:29:33.176Z,99.99
2023-04-25T02:30:33.145Z,99.99
2023-04-25T02:31:33.234Z,99.99
2023-04-25T02:32:33.184Z,99.99
2023-04-25T02:33:33.129Z,99.99
2023-04-25T02:34:33.107Z,99.99
2023-04-25T02:35:33.117Z,99.99
2023-04-25T02:36:33.089Z,99.99
2023-04-25T02:37:33.118Z,99.99
2023-04-25T02:38:33.067Z,99.99
2023-04-25T02:39:33.074Z,99.99
2023-04-25T02:40:33.055Z,99.99
2023-04-25T02:41:33.053Z,99.99
2023-04-25T02:42:33.065Z,99.99
2023-04-25T02:43:33.025Z,99.99
2023-04-25T02:44:33.021Z,99.99
2023-04-25T02:45:32.997Z,99.99
2023-04-25T02:47:33.042Z,99.99
2023-04-25T02:48:33.008Z,99.99
2023-04-25T02:49:32.963Z,99.99
2023-04-25T02:50:32.950Z,99.99
2023-04-25T02:51:32.946Z,99.99
2023-04-25T02:52:32.976Z,99.99
2023-04-25T02:53:32.916Z,99.99
2023-04-25T02:54:32.896Z,99.99
2023-04-25T02:55:32.916Z,99.99
2023-04-25T02:56:32.879Z,99.99
2023-04-25T02:57:32.882Z,99.99
2023-04-25T02:58:32.878Z,99.99
2023-04-25T02:59:32.855Z,99.99
2023-04-25T03:00:32.888Z,99.99
2023-04-25T03:01:32.867Z,99.99
2023-04-25T03:02:32.908Z,99.99
2023-04-25T03:03:32.847Z,99.99
2023-04-25T03:04:32.891Z,99.99
2023-04-25T03:05:32.805Z,99.99
2023-04-25T03:06:32.779Z,99.99
2023-04-25T03:07:32.761Z,99.99
2023-04-25T03:08:32.794Z,99.99
2023-04-25T03:09:32.762Z,99.99
2023-04-25T03:10:32.721Z,99.99
2023-04-25T03:11:32.738Z,99.99
2023-04-25T03:12:32.708Z,99.99
2023-04-25T03:13:32.715Z,99.99
2023-04-25T03:14:32.699Z,99.99
2023-04-25T03:15:32.726Z,99.99
2023-04-25T03:16:32.703Z,99.99
2023-04-25T03:17:32.691Z,99.99
2023-04-25T03:18:32.654Z,99.99
2023-04-25T03:19:32.659Z,99.99
2023-04-25T03:20:32.661Z,99.99
2023-04-25T03:21:32.629Z,99.99
2023-04-25T03:22:32.609Z,99.99
2023-04-25T03:23:32.608Z,99.99
2023-04-25T03:24:32.597Z,99.99
2023-04-25T03:25:32.590Z,99.99
2023-04-25T03:26:32.580Z,99.99
2023-04-25T03:27:32.584Z,99.99
2023-04-25T03:28:32.542Z,99.99
2023-04-25T03:29:32.563Z,99.99
2023-04-25T03:30:32.531Z,99.99
2023-04-25T03:31:32.617Z,99.99
2023-04-25T03:32:32.537Z,99.99
2023-04-25T03:33:32.500Z,99.99
2023-04-25T03:34:32.483Z,99.99
2023-04-25T03:35:32.497Z,99.99
2023-04-25T03:36:32.483Z,99.99
2023-04-25T03:37:32.467Z,99.99
2023-04-25T03:38:32.436Z,99.99
2023-04-25T03:39:32.440Z,99.99
2023-04-25T03:40:32.439Z,99.99
2023-04-25T03:41:32.445Z,99.99
2023-04-25T03:42:32.397Z,99.99
2023-04-25T03:43:32.402Z,99.99
2023-04-25T03:44:32.425Z,99.99
2023-04-25T03:45:32.478Z,99.99
2023-04-25T03:46:32.531Z,99.99
2023-04-25T03:47:32.397Z,99.99
2023-04-25T03:48:32.327Z,99.99
2023-04-25T03:49:32.287Z,99.99
2023-04-25T03:50:32.355Z,99.99
2023-04-25T03:51:32.340Z,99.99
2023-04-25T03:52:32.273Z,99.99
2023-04-25T03:53:32.251Z,99.99
2023-04-25T03:54:32.247Z,99.99
2023-04-25T03:55:32.224Z,99.99
2023-04-25T03:56:32.229Z,99.99
2023-04-25T03:57:32.208Z,99.99
2023-04-25T03:58:32.195Z,99.99
2023-04-25T03:59:32.255Z,99.99
2023-04-25T04:00:32.198Z,99.99
2023-04-25T04:01:32.194Z,99.99
2023-04-25T04:02:32.496Z,99.99
2023-04-25T04:03:32.373Z,99.99
2023-04-25T04:04:32.325Z,99.99
2023-04-25T04:05:32.183Z,99.99
2023-04-25T04:06:32.114Z,99.99
2023-04-25T04:07:32.122Z,99.99
2023-04-25T04:08:32.098Z,99.99
2023-04-25T04:09:32.094Z,99.99
2023-04-25T04:10:32.090Z,99.99
2023-04-25T04:11:32.059Z,99.99
2023-04-25T04:12:32.099Z,99.99
2023-04-25T04:13:32.059Z,99.99
2023-04-25T04:14:32.030Z,99.99
2023-04-25T04:15:32.026Z,99.99
2023-04-25T04:16:33.949Z,99.99
2023-04-25T04:17:32.040Z,99.99
2023-04-25T04:18:32.007Z,99.99
2023-04-25T04:19:31.972Z,99.99
2023-04-25T04:20:31.978Z,99.99
2023-04-25T04:21:31.966Z,99.99
2023-04-25T04:22:31.975Z,99.99
2023-04-25T04:23:31.931Z,99.99
2023-04-25T04:24:31.971Z,99.99
2023-04-25T04:25:31.919Z,99.99
2023-04-25T04:26:31.924Z,99.99
2023-04-25T04:27:31.933Z,99.99
2023-04-25T04:28:31.921Z,99.99
2023-04-25T04:29:31.880Z,99.99
2023-04-25T04:30:31.874Z,99.99
2023-04-25T04:31:31.869Z,99.99
2023-04-25T04:32:31.987Z,99.99
2023-04-25T04:33:31.873Z,99.99
2023-04-25T04:34:31.921Z,99.99
2023-04-25T04:35:31.847Z,99.99
2023-04-25T04:36:31.860Z,99.99
2023-04-25T04:37:31.801Z,99.99
2023-04-25T04:38:31.809Z,99.99
2023-04-25T04:39:31.783Z,99.99
2023-04-25T04:40:31.773Z,99.99
2023-04-25T04:41:31.851Z,99.99
2023-04-25T04:42:31.817Z,99.99
2023-04-25T04:43:31.744Z,99.99
2023-04-25T04:44:31.760Z,99.99
2023-04-25T04:45:31.739Z,99.99
2023-04-25T04:46:31.876Z,99.99
2023-04-25T04:47:31.773Z,99.99
2023-04-25T04:48:31.755Z,99.99
2023-04-25T04:49:31.710Z,99.99
2023-04-25T04:50:31.752Z,99.99
2023-04-25T04:51:31.654Z,99.99
2023-04-25T04:52:31.891Z,99.99
2023-04-25T04:53:31.904Z,99.99
2023-04-25T04:54:31.665Z,99.99
2023-04-25T04:55:31.602Z,99.99
2023-04-25T04:56:31.629Z,99.99
2023-04-25T04:57:31.618Z,99.99
2023-04-25T04:58:31.618Z,99.99
2023-04-25T04:59:31.585Z,99.99
2023-04-25T05:00:31.622Z,99.99
2023-04-25T05:01:31.577Z,99.99
2023-04-25T05:02:31.651Z,99.99
2023-04-25T05:03:31.723Z,99.99
2023-04-25T05:04:31.587Z,99.99
2023-04-25T05:05:31.526Z,99.99
2023-04-25T05:06:31.515Z,99.99
2023-04-25T05:07:31.684Z,99.99
2023-04-25T05:08:31.475Z,99.99
2023-04-25T05:09:31.485Z,99.99
2023-04-25T05:10:31.483Z,99.99
2023-04-25T05:11:31.442Z,99.99
2023-04-25T05:12:31.588Z,99.99
2023-04-25T05:13:31.427Z,99.99
2023-04-25T05:14:31.429Z,99.99
2023-04-25T05:15:31.424Z,99.99
2023-04-25T05:16:31.487Z,99.65
2023-04-25T05:17:31.510Z,99.76
2023-04-25T05:18:31.499Z,99.86
2023-04-25T05:19:31.380Z,99.76
2023-04-25T05:20:31.473Z,99.82
2023-04-25T05:21:31.344Z,99.71
2023-04-25T05:22:31.375Z,99.51
2023-04-25T05:23:48.662Z,99.44
2023-04-25T05:24:31.358Z,99.24
2023-04-25T05:25:31.357Z,99.14
2023-04-25T05:26:31.307Z,99.34
2023-04-25T05:27:31.291Z,99.34
2023-04-25T05:28:31.326Z,99.55
2023-04-25T05:29:31.303Z,99.82
2023-04-25T05:30:31.294Z,99.99
2023-04-25T05:31:31.300Z,99.71
2023-04-25T05:32:31.288Z,99.30
2023-04-25T05:33:31.246Z,99.05
2023-04-25T05:34:31.254Z,99.05
2023-04-25T05:35:31.286Z,98.01
2023-04-25T05:36:31.193Z,98.01
2023-04-25T05:37:31.176Z,98.11
2023-04-25T05:38:33.218Z,97.39
2023-04-25T05:39:31.246Z,96.88
2023-04-25T05:40:31.208Z,96.56
2023-04-25T05:41:31.220Z,97.08
2023-04-25T05:42:31.378Z,97.14
2023-04-25T05:43:31.186Z,96.77
2023-04-25T05:44:31.215Z,96.15
2023-04-25T05:45:31.182Z,96.15
2023-04-25T05:46:31.183Z,96.73
2023-04-25T05:47:31.193Z,96.62
2023-04-25T05:48:31.169Z,96.62
2023-04-25T05:49:31.193Z,96.42
2023-04-25T05:50:31.506Z,96.11
2023-04-25T05:51:31.089Z,96.42
2023-04-25T05:52:31.069Z,96.21
2023-04-25T05:53:31.165Z,95.80
2023-04-25T05:54:31.030Z,95.80
2023-04-25T05:55:31.006Z,96.21
2023-04-25T05:56:30.977Z,96.21
2023-04-25T05:57:30.968Z,96.01
2023-04-25T05:58:31.036Z,96.48
2023-04-25T05:59:30.976Z,96.69
2023-04-25T06:00:31.018Z,95.76
2023-04-25T06:01:30.925Z,95.24
2023-04-25T06:02:31.127Z,94.10
2023-04-25T06:03:31.139Z,94.52
2023-04-25T06:04:31.308Z,94.62
2023-04-25T06:05:31.115Z,94.42
2023-04-25T06:06:30.899Z,93.90
2023-04-25T06:07:30.892Z,93.90
2023-04-25T06:08:30.855Z,94.47
2023-04-25T06:09:30.846Z,94.37
2023-04-25T06:10:30.896Z,94.17
2023-04-25T06:11:30.857Z,94.17
2023-04-25T06:12:30.821Z,93.54
2023-04-25T06:13:30.814Z,93.03
2023-04-25T06:14:30.790Z,93.13
2023-04-25T06:15:30.794Z,92.72
2023-04-25T06:16:30.862Z,92.99
2023-04-25T06:17:30.948Z,93.50
2023-04-25T06:18:30.778Z,92.16
2023-04-25T06:19:30.740Z,91.85
2023-04-25T06:20:30.755Z,92.27
2023-04-25T06:21:30.718Z,90.51
2023-04-25T06:22:30.761Z,91.54
2023-04-25T06:23:30.711Z,91.24
2023-04-25T06:24:30.787Z,91.30
2023-04-25T06:25:30.925Z,91.50
2023-04-25T06:26:30.967Z,90.67
2023-04-25T06:27:30.694Z,91.50
2023-04-25T06:28:30.653Z,92.18
2023-04-25T06:29:30.641Z,90.94
2023-04-25T06:30:30.643Z,88.72
2023-04-25T06:31:30.662Z,89.19
2023-04-25T06:32:30.653Z,87.99
2023-04-25T06:33:30.648Z,88.62
2023-04-25T06:34:30.599Z,88.41
2023-04-25T06:35:30.680Z,87.79
2023-04-25T06:36:30.581Z,89.75
2023-04-25T06:37:30.581Z,89.61
2023-04-25T06:38:30.594Z,90.01
2023-04-25T06:39:30.581Z,90.18
2023-04-25T06:40:30.555Z,90.39
2023-04-25T06:41:30.556Z,89.77
2023-04-25T06:42:30.527Z,89.42
2023-04-25T06:43:30.486Z,88.02
2023-04-25T06:44:30.519Z,89.56
2023-04-25T06:45:30.496Z,88.12
2023-04-25T06:46:30.504Z,87.19
2023-04-25T06:47:30.525Z,87.40
2023-04-25T06:48:30.485Z,87.34
2023-04-25T06:49:30.446Z,88.23
2023-04-25T06:50:30.444Z,87.44
2023-04-25T06:51:30.399Z,87.13
2023-04-25T06:52:30.418Z,87.81
2023-04-25T06:53:30.389Z,86.88
2023-04-25T06:54:30.396Z,87.30
2023-04-25T06:55:30.377Z,88.02
2023-04-25T06:56:30.420Z,85.69
2023-04-25T06:57:30.364Z,85.89
2023-04-25T06:58:30.388Z,85.89
2023-04-25T06:59:30.384Z,87.09
2023-04-25T07:00:30.378Z,87.40
2023-04-25T07:01:30.460Z,85.51
2023-04-25T07:02:30.667Z,85.51
2023-04-25T07:03:30.504Z,83.76
2023-04-25T07:04:30.497Z,83.76
2023-04-25T07:05:30.303Z,85.61
2023-04-25T07:06:30.335Z,85.92
2023-04-25T07:07:30.257Z,87.01
2023-04-25T07:08:30.237Z,85.47
2023-04-25T07:09:30.260Z,84.75
2023-04-25T07:10:30.234Z,84.64
2023-04-25T07:11:30.192Z,83.62
2023-04-25T07:12:30.195Z,83.41
2023-04-25T07:13:30.205Z,83.04
2023-04-25T07:14:30.225Z,83.35
2023-04-25T07:15:30.168Z,84.95
2023-04-25T07:16:30.172Z,82.73
2023-04-25T07:17:30.135Z,83.35
2023-04-25T07:18:30.187Z,82.11
2023-04-25T07:19:30.121Z,83.35
2023-04-25T07:20:30.123Z,82.93
2023-04-25T07:21:30.089Z,83.04
2023-04-25T07:22:30.171Z,82.53
2023-04-25T07:23:30.101Z,81.29
2023-04-25T07:24:30.089Z,83.35
2023-04-25T07:25:30.056Z,83.62
2023-04-25T07:26:30.071Z,80.67
2023-04-25T07:27:30.139Z,80.47
2023-04-25T07:28:30.135Z,79.75
2023-04-25T07:29:30.045Z,80.16
2023-04-25T07:30:30.076Z,78.61
2023-04-25T07:31:30.205Z,80.77
2023-04-25T07:32:30.046Z,80.33
2023-04-25T07:33:30.112Z,79.67
2023-04-25T07:34:29.998Z,78.54
2023-04-25T07:35:30.068Z,78.44
2023-04-25T07:36:30.026Z,77.31
2023-04-25T07:37:30.115Z,76.79
2023-04-25T07:38:30.068Z,76.76
2023-04-25T07:39:29.921Z,77.44
2023-04-25T07:40:29.973Z,76.82
2023-04-25T07:41:29.983Z,75.25
2023-04-25T07:42:29.908Z,76.38
2023-04-25T07:43:29.860Z,75.21
2023-04-25T07:44:29.853Z,73.68
2023-04-25T07:45:29.876Z,73.74
2023-04-25T07:46:29.877Z,74.36
2023-04-25T07:47:29.863Z,73.19
2023-04-25T07:48:29.840Z,72.07
2023-04-25T07:49:29.838Z,74.02
2023-04-25T07:50:29.804Z,72.07
2023-04-25T07:51:29.804Z,73.27
2023-04-25T07:52:29.775Z,70.81
2023-04-25T07:53:29.766Z,71.11
2023-04-25T07:54:29.762Z,70.70
2023-04-25T07:55:29.737Z,70.22
2023-04-25T07:56:38.507Z,69.74
2023-04-25T07:57:29.738Z,68.44
2023-04-25T07:58:29.728Z,70.80
2023-04-25T07:59:30.362Z,69.09
2023-04-25T08:00:29.708Z,70.63
2023-04-25T08:01:29.664Z,71.11
2023-04-25T08:02:29.801Z,71.18
2023-04-25T08:03:29.957Z,69.40
2023-04-25T08:04:29.821Z,70.02
2023-04-25T08:05:29.866Z,69.89
2023-04-25T08:06:30.203Z,68.41
2023-04-25T08:07:29.669Z,69.88
2023-04-25T08:08:29.604Z,72.17
2023-04-25T08:09:29.768Z,71.80
2023-04-25T08:10:29.576Z,70.67
2023-04-25T08:11:29.601Z,70.84
2023-04-25T08:12:29.587Z,68.76
2023-04-25T08:13:29.598Z,69.78
2023-04-25T08:14:29.528Z,70.29
2023-04-25T08:15:29.565Z,71.39
2023-04-25T08:16:29.705Z,68.01
2023-04-25T08:17:29.540Z,69.85
2023-04-25T08:18:29.556Z,69.07
2023-04-25T08:19:29.517Z,70.29
2023-04-25T08:20:29.487Z,67.57
2023-04-25T08:21:29.471Z,67.49
2023-04-25T08:22:29.477Z,66.98
2023-04-25T08:23:29.453Z,67.26
2023-04-25T08:24:29.454Z,67.43
2023-04-25T08:25:29.482Z,64.98
2023-04-25T08:26:29.410Z,65.77
2023-04-25T08:27:29.426Z,65.05
2023-04-25T08:28:29.405Z,67.68
2023-04-25T08:29:29.429Z,64.40
2023-04-25T08:30:29.429Z,62.87
2023-04-25T08:31:29.515Z,62.26
2023-04-25T08:32:30.804Z,61.95
2023-04-25T08:33:29.366Z,63.07
2023-04-25T08:34:29.349Z,59.47
2023-04-25T08:35:29.379Z,58.58
2023-04-25T08:37:29.296Z,62.02
2023-04-25T08:38:29.275Z,59.95
2023-04-25T08:39:29.351Z,61.69
2023-04-25T08:40:29.283Z,59.06
2023-04-25T08:41:29.284Z,61.03
2023-04-25T08:42:29.251Z,64.16
2023-04-25T08:43:29.249Z,62.35
2023-04-25T08:44:29.256Z,63.64
2023-04-25T08:45:29.221Z,63.40
2023-04-25T08:46:29.350Z,63.98
2023-04-25T08:47:29.288Z,62.39
2023-04-25T08:48:29.172Z,60.31
2023-04-25T08:49:29.164Z,62.05
2023-04-25T08:50:29.185Z,62.16
2023-04-25T08:51:29.166Z,61.88
2023-04-25T08:52:29.151Z,62.52
2023-04-25T08:53:29.139Z,62.93
2023-04-25T08:54:34.496Z,63.06
2023-04-25T09:10:34.144Z,63.57
2023-04-25T09:10:39.535Z,61.69
2023-04-25T09:11:39.740Z,61.99
2023-04-25T09:12:39.491Z,63.22
2023-04-25T09:13:39.560Z,63.43
2023-04-25T09:14:39.469Z,64.42
2023-04-25T09:15:39.455Z,65.65
2023-04-25T09:16:40.419Z,67.87
2023-04-25T09:17:39.704Z,63.37
2023-04-25T09:18:39.455Z,62.24
2023-04-25T09:19:41.489Z,62.11
2023-04-25T09:20:51.008Z,60.17
2023-04-25T09:21:39.471Z,61.26
2023-04-25T09:22:39.411Z,61.77
2023-04-25T09:23:39.403Z,61.26
2023-04-25T09:24:39.393Z,59.53
2023-04-25T09:25:39.502Z,61.29
2023-04-25T09:26:39.391Z,61.40
2023-04-25T09:27:39.571Z,61.70
2023-04-25T09:28:39.382Z,62.42
2023-04-25T09:29:39.354Z,62.35
2023-04-25T09:30:39.289Z,62.76
2023-04-25T09:31:39.392Z,63.26
2023-04-25T09:32:39.301Z,64.29
2023-04-25T09:33:39.337Z,63.03
2023-04-25T09:34:39.265Z,64.36
2023-04-25T09:35:39.271Z,64.74
2023-04-25T09:36:39.232Z,64.54
2023-04-25T09:37:39.310Z,62.39
2023-04-25T09:38:39.210Z,63.72
2023-04-25T09:39:39.221Z,62.21
2023-04-25T09:40:39.197Z,63.92
2023-04-25T09:41:39.300Z,62.26
2023-04-25T09:42:39.173Z,64.68
2023-04-25T09:43:39.175Z,62.40
2023-04-25T09:44:39.138Z,60.05
2023-04-25T09:45:39.191Z,61.66
2023-04-25T09:46:39.273Z,60.51
2023-04-25T09:47:39.152Z,58.19
2023-04-25T09:48:39.134Z,61.69
2023-04-25T09:49:39.118Z,60.80
2023-04-25T09:50:39.120Z,59.91
2023-04-25T09:51:39.087Z,60.42
2023-04-25T09:52:39.061Z,57.79
2023-04-25T09:53:39.090Z,60.47
2023-04-25T09:54:39.041Z,60.78
2023-04-25T09:55:39.056Z,61.22
2023-04-25T09:56:39.051Z,62.55
2023-04-25T09:57:39.024Z,65.31
2023-04-25T09:58:39.096Z,61.76
2023-04-25T09:59:39.002Z,62.78
2023-04-25T10:00:38.988Z,65.14
2023-04-25T10:01:39.033Z,62.58
2023-04-25T10:02:39.031Z,63.32
2023-04-25T10:03:39.182Z,63.64
2023-04-25T10:04:39.036Z,62.74
2023-04-25T10:05:38.955Z,61.10
2023-04-25T10:06:38.934Z,62.63
2023-04-25T10:07:39.017Z,62.54
2023-04-25T10:08:38.994Z,63.94
2023-04-25T10:09:38.954Z,61.66
2023-04-25T10:10:38.981Z,61.96
2023-04-25T10:11:38.940Z,60.19
2023-04-25T10:12:38.956Z,60.47
2023-04-25T10:13:38.904Z,59.94
2023-04-25T10:14:38.885Z,58.58
2023-04-25T10:15:40.143Z,57.45
2023-04-25T10:16:38.836Z,55.51
2023-04-25T10:17:38.872Z,56.53
2023-04-25T10:18:38.813Z,54.39
2023-04-25T10:19:38.813Z,54.39
2023-04-25T10:20:38.785Z,52.95
2023-04-25T10:21:38.843Z,51.86
2023-04-25T10:22:38.751Z,52.98
2023-04-25T10:23:38.756Z,54.72
2023-04-25T10:24:38.789Z,55.41
2023-04-25T10:25:38.880Z,54.49
2023-04-25T10:26:38.730Z,56.53
2023-04-25T10:27:38.763Z,57.15
2023-04-25T10:28:38.692Z,57.53
2023-04-25T10:29:38.698Z,55.89
2023-04-25T10:30:38.746Z,54.41
2023-04-25T10:31:38.745Z,55.64
2023-04-25T10:32:38.717Z,58.40
2023-04-25T10:33:38.669Z,55.54
2023-04-25T10:34:38.652Z,55.84
2023-04-25T10:35:38.629Z,53.62
2023-04-25T10:36:38.641Z,54.61
2023-04-25T10:37:40.628Z,54.51
2023-04-25T10:38:38.590Z,54.10
2023-04-25T10:39:38.592Z,54.69
2023-04-25T10:40:38.574Z,54.49
2023-04-25T10:41:38.585Z,53.64
2023-04-25T10:42:38.600Z,54.46
2023-04-25T10:43:38.555Z,55.63
2023-04-25T10:44:38.540Z,53.85
2023-04-25T10:45:38.669Z,52.48
2023-04-25T10:46:38.654Z,53.16
2023-04-25T10:47:38.545Z,50.98
2023-04-25T10:48:38.499Z,51.39
2023-04-25T10:49:38.512Z,50.73
2023-04-25T10:50:38.507Z,49.48
2023-04-25T10:51:54.190Z,49.38
2023-04-25T10:52:38.518Z,47.75
2023-04-25T10:53:38.483Z,49.87
2023-04-25T10:54:38.420Z,50.65
2023-04-25T10:55:38.514Z,47.91
2023-04-25T10:56:38.426Z,49.26
2023-04-25T10:57:38.436Z,49.12
2023-04-25T10:58:38.432Z,52.63
2023-04-25T10:59:38.380Z,51.48
2023-04-25T11:00:53.161Z,51.26
2023-04-25T11:01:38.457Z,52.33
2023-04-25T11:02:38.576Z,54.11
2023-04-25T11:03:38.511Z,55.33
2023-04-25T11:04:38.550Z,54.64
2023-04-25T11:05:51.001Z,55.28
2023-04-25T11:06:38.327Z,54.69
2023-04-25T11:07:38.306Z,56.63
2023-04-25T11:08:38.305Z,56.32
2023-04-25T11:09:38.289Z,56.30
2023-04-25T11:10:38.298Z,59.91
2023-04-25T11:11:38.262Z,59.42
2023-04-25T11:12:38.232Z,62.04
2023-04-25T11:13:38.256Z,63.94
2023-04-25T11:14:38.245Z,64.59
2023-04-25T11:15:38.220Z,64.41
2023-04-25T11:16:38.513Z,67.18
2023-04-25T11:17:38.390Z,65.67
2023-04-25T11:18:38.180Z,67.11
2023-04-25T11:19:38.191Z,67.49
2023-04-25T11:20:38.217Z,67.46
2023-04-25T11:21:38.143Z,67.32
2023-04-25T11:22:38.141Z,66.71
2023-04-25T11:23:38.186Z,65.04
2023-04-25T11:24:38.166Z,66.57
2023-04-25T11:25:38.953Z,63.81
2023-04-25T11:26:38.118Z,63.53
2023-04-25T11:27:38.097Z,64.76
2023-04-25T11:28:38.071Z,64.65
2023-04-25T11:29:38.097Z,63.97
2023-04-25T11:30:38.068Z,62.95
2023-04-25T11:31:38.070Z,65.44
2023-04-25T11:32:38.367Z,65.23
2023-04-25T11:33:38.045Z,64.72
2023-04-25T11:34:38.052Z,65.95
2023-04-25T11:35:38.000Z,66.56
2023-04-25T11:36:38.001Z,65.47
2023-04-25T11:37:38.003Z,64.13
2023-04-25T11:38:38.022Z,64.75
2023-04-25T11:39:37.959Z,66.60
2023-04-25T11:40:37.980Z,64.54
2023-04-25T11:41:37.944Z,65.26
2023-04-25T11:42:37.950Z,65.64
2023-04-25T11:43:37.920Z,62.98
2023-04-25T11:44:37.917Z,63.79
2023-04-25T11:45:37.998Z,64.51
2023-04-25T11:46:37.997Z,65.64
2023-04-25T11:47:38.048Z,64.41
2023-04-25T11:48:37.962Z,65.03
2023-04-25T11:49:37.885Z,66.19
2023-04-25T11:50:37.891Z,67.41
2023-04-25T11:51:37.886Z,68.03
2023-04-25T11:52:37.819Z,68.65
2023-04-25T11:53:37.819Z,69.57
2023-04-25T11:54:37.902Z,69.16
2023-04-25T11:55:37.797Z,68.85
2023-04-25T11:56:37.930Z,69.19
2023-04-25T11:57:37.822Z,70.66
2023-04-25T11:58:37.854Z,71.04
2023-04-25T11:59:37.776Z,70.08
2023-04-25T12:00:37.724Z,68.96
2023-04-25T12:01:37.759Z,68.03
2023-04-25T12:02:37.943Z,69.16
2023-04-25T12:03:37.865Z,68.51
2023-04-25T12:04:37.959Z,68.07
2023-04-25T12:05:37.869Z,68.07
2023-04-25T12:06:37.754Z,68.45
2023-04-25T12:07:37.752Z,67.08
2023-04-25T12:08:37.660Z,64.16
2023-04-25T12:09:37.693Z,61.75
2023-04-25T12:10:37.649Z,63.92
2023-04-25T12:11:38.868Z,57.62
2023-04-25T12:12:37.635Z,55.18
2023-04-25T12:13:37.641Z,53.88
2023-04-25T12:14:37.997Z,51.17
2023-04-25T12:15:37.709Z,49.62
2023-04-25T12:16:37.647Z,52.64
2023-04-25T12:17:37.677Z,48.65
2023-04-25T12:18:37.597Z,49.30
2023-04-25T12:19:37.569Z,48.17
2023-04-25T12:20:37.524Z,46.05
2023-04-25T12:21:50.209Z,45.14
2023-04-25T12:22:37.914Z,47.74
2023-04-25T12:23:37.493Z,48.16
2023-04-25T12:24:39.427Z,49.19
2023-04-25T12:25:37.494Z,48.36
2023-04-25T12:26:37.478Z,47.38
2023-04-25T12:27:37.532Z,49.92
2023-04-25T12:28:37.571Z,51.82
2023-04-25T12:29:49.317Z,49.73
2023-04-25T12:30:37.450Z,49.45
2023-04-25T12:31:37.457Z,48.67
2023-04-25T12:32:37.470Z,48.94
2023-04-25T12:33:37.443Z,49.02
2023-04-25T12:34:37.410Z,49.58
2023-04-25T12:35:37.425Z,46.98
2023-04-25T12:36:37.374Z,47.39
2023-04-25T12:37:37.353Z,45.32
2023-04-25T12:38:37.744Z,46.06
2023-04-25T12:39:37.369Z,45.38
2023-04-25T12:40:37.329Z,43.93
2023-04-25T12:41:37.314Z,43.95
2023-04-25T12:42:37.311Z,44.31
2023-04-25T12:43:37.318Z,41.33
2023-04-25T12:44:37.370Z,40.55
2023-04-25T12:45:37.274Z,42.03
2023-04-25T12:46:37.336Z,38.03
2023-04-25T12:47:37.265Z,38.11
2023-04-25T12:48:37.301Z,39.00
2023-04-25T12:49:37.257Z,34.54
2023-04-25T12:50:37.278Z,35.91
2023-04-25T12:51:37.294Z,32.49
2023-04-25T12:52:37.250Z,32.05
2023-04-25T12:53:37.204Z,33.18
2023-04-25T12:54:37.246Z,33.60
2023-04-25T12:55:37.186Z,33.62
2023-04-25T12:56:37.170Z,33.79
2023-04-25T12:57:37.177Z,35.70
2023-04-25T12:58:37.172Z,33.28
2023-04-25T12:59:37.179Z,37.65
2023-04-25T13:00:37.173Z,32.76
2023-04-25T13:01:37.439Z,33.97
2023-04-25T13:02:37.289Z,34.94
2023-04-25T13:03:37.271Z,33.59
2023-04-25T13:04:37.194Z,34.29
2023-04-25T13:05:37.071Z,32.20
2023-04-25T13:06:37.069Z,32.50
2023-04-25T13:07:37.135Z,32.69
2023-04-25T13:08:37.040Z,33.20